Time;durP1;ratioP1;P1;durP2;ratioP2;P2;SDS_P1;SDS_P2;PMS_P1;PMS_P2;Temp;Humidity;BMP_temperature;BMP_pressure;BME280_temperature;BME280_humidity;BME280_pressure;Samples;Min_cycle;Max_cycle;Signal;HPM_P1;HPM_P2
2024/03/10 00:02:05;;;;;;;267.52;85.88;;;19.00;99.90;;;;;;5072604;28;20438;-44
2024/03/10 00:04:31;;;;;;;261.45;89.57;;;19.00;99.90;;;;;;5072617;28;20032;-44
2024/03/10 00:06:58;;;;;;;248.07;86.22;;;19.00;99.90;;;;;;5072726;28;20518;-44
2024/03/10 00:09:24;;;;;;;232.85;84.03;;;19.00;99.90;;;;;;5072293;28;20439;-44
2024/03/10 00:11:50;;;;;;;209.98;78.57;;;19.00;99.90;;;;;;5049773;28;20066;-45
2024/03/10 00:14:17;;;;;;;213.48;75.53;;;19.00;99.90;;;;;;5050027;28;20090;-44
2024/03/10 00:16:43;;;;;;;234.33;76.20;;;19.00;99.90;;;;;;5071711;28;20024;-44
2024/03/10 00:19:11;;;;;;;219.45;76.60;;;19.00;99.90;;;;;;5071756;28;20265;-44
2024/03/10 00:21:37;;;;;;;;;;;19.00;99.90;;;;;;5072632;28;20009;-44
2024/03/10 00:24:04;;;;;;;202.85;70.78;;;19.00;99.90;;;;;;5072273;28;20364;-45
2024/03/10 00:26:30;;;;;;;180.43;67.78;;;19.00;99.90;;;;;;5062360;28;20028;-43
2024/03/10 00:28:56;;;;;;;178.73;65.78;;;19.00;99.90;;;;;;5064133;28;20098;-44
2024/03/10 00:31:22;;;;;;;177.68;64.45;;;19.00;99.90;;;;;;5072320;28;20029;-44
2024/03/10 00:33:48;;;;;;;167.90;62.95;;;19.00;99.90;;;;;;5072393;28;20043;-48
2024/03/10 00:36:13;;;;;;;163.27;61.97;;;19.00;99.90;;;;;;5072104;28;20440;-44
2024/03/10 00:38:39;;;;;;;155.18;60.78;;;19.00;99.90;;;;;;5072291;28;20037;-45
2024/03/10 00:41:05;;;;;;;149.73;59.72;;;19.00;99.90;;;;;;5071841;28;20021;-44
2024/03/10 00:43:33;;;;;;;147.77;58.67;;;19.00;99.90;;;;;;5072053;28;20112;-45
2024/03/10 00:45:59;;;;;;;;;;;19.00;99.90;;;;;;5054733;28;20344;-45
2024/03/10 00:48:25;;;;;;;143.18;55.72;;;19.00;99.90;;;;;;5056544;28;19905;-44
2024/03/10 00:50:51;;;;;;;139.18;54.53;;;19.00;99.90;;;;;;5067658;28;20354;-45
2024/03/10 00:53:18;;;;;;;136.35;53.58;;;19.00;99.90;;;;;;5052123;28;20070;-45
2024/03/10 00:55:44;;;;;;;134.35;53.10;;;19.00;99.90;;;;;;5063856;28;20043;-45
2024/03/10 00:58:10;;;;;;;125.07;50.65;;;19.00;99.90;;;;;;5040417;28;20400;-45
2024/03/10 01:00:37;;;;;;;120.78;48.35;;;18.90;99.90;;;;;;5079648;23;20070;-56
2024/03/10 01:03:06;;;;;;;117.05;48.42;;;19.00;99.90;;;;;;5085524;28;20210;-55
2024/03/10 01:05:33;;;;;;;116.57;49.67;;;19.00;99.90;;;;;;5091949;28;20511;-55
2024/03/10 01:08:00;;;;;;;119.53;47.78;;;19.00;99.90;;;;;;5088384;28;20103;-55
2024/03/10 01:10:26;;;;;;;117.72;47.45;;;19.00;99.90;;;;;;5084418;28;20026;-54
2024/03/10 01:12:52;;;;;;;109.63;47.25;;;19.00;99.90;;;;;;5079352;28;20029;-53
2024/03/10 01:15:18;;;;;;;105.13;44.25;;;19.00;99.90;;;;;;5080471;28;20027;-53
2024/03/10 01:17:46;;;;;;;100.30;42.92;;;19.00;99.90;;;;;;5091268;28;20500;-54
2024/03/10 01:20:12;;;;;;;112.20;42.97;;;19.00;99.90;;;;;;5091893;28;20580;-53
2024/03/10 01:22:38;;;;;;;113.55;43.55;;;19.00;99.90;;;;;;5091648;28;20179;-52
2024/03/10 01:25:04;;;;;;;95.00;40.42;;;19.00;99.90;;;;;;5091235;28;20073;-53
2024/03/10 01:27:31;;;;;;;98.82;39.95;;;18.90;99.90;;;;;;5086682;28;20453;-53
2024/03/10 01:29:57;;;;;;;92.72;38.50;;;18.90;99.90;;;;;;5085800;28;20020;-53
2024/03/10 01:32:23;;;;;;;101.35;40.28;;;19.00;99.90;;;;;;5086154;28;20020;-52
2024/03/10 01:34:49;;;;;;;89.47;39.67;;;18.90;99.90;;;;;;5092081;28;20012;-52
2024/03/10 01:37:18;;;;;;;87.88;37.33;;;18.90;99.90;;;;;;5091440;28;20024;-53
2024/03/10 01:39:44;;;;;;;79.95;34.97;;;18.90;99.90;;;;;;5091232;28;20020;-52
2024/03/10 01:42:11;;;;;;;79.20;36.05;;;18.90;99.90;;;;;;5091339;28;20103;-54
2024/03/10 01:44:36;;;;;;;81.00;33.38;;;18.90;99.90;;;;;;5091237;28;20043;-55
2024/03/10 01:47:03;;;;;;;76.93;33.72;;;18.90;99.90;;;;;;5091276;28;20028;-55
2024/03/10 01:49:29;;;;;;;83.15;32.72;;;18.90;99.90;;;;;;5086709;28;20055;-54
2024/03/10 01:51:56;;;;;;;79.07;33.10;;;18.90;99.90;;;;;;5077403;28;20349;-55
2024/03/10 01:54:26;;;;;;;73.13;32.28;;;18.90;99.90;;;;;;5076568;28;20027;-55
2024/03/10 01:56:52;;;;;;;67.60;29.65;;;18.90;99.90;;;;;;5078244;28;20016;-54
2024/03/10 01:59:18;;;;;;;70.40;29.67;;;18.90;99.90;;;;;;5075022;28;20020;-54
2024/03/10 02:01:46;;;;;;;56.20;28.00;;;18.90;99.90;;;;;;5085535;23;20076;-44
2024/03/10 02:04:14;;;;;;;74.03;30.02;;;18.90;99.90;;;;;;5057522;28;20072;-43
2024/03/10 02:06:43;;;;;;;59.67;27.05;;;18.90;99.90;;;;;;5042501;28;20357;-48
2024/03/10 02:09:10;;;;;;;62.40;26.77;;;18.90;99.90;;;;;;5057495;28;20094;-45
2024/03/10 02:11:36;;;;;;;57.28;26.23;;;18.90;99.90;;;;;;5042652;28;20178;-45
2024/03/10 02:14:07;;;;;;;65.47;25.58;;;18.80;99.90;;;;;;5072962;28;20077;-44
2024/03/10 02:16:33;;;;;;;49.80;24.48;;;18.90;99.90;;;;;;5070209;28;20080;-45
2024/03/10 02:18:59;;;;;;;60.92;25.15;;;18.90;99.90;;;;;;5056201;28;20017;-44
2024/03/10 02:21:26;;;;;;;59.65;25.75;;;18.80;99.90;;;;;;5053666;28;20031;-45
2024/03/10 02:24:06;;;;;;;56.83;26.23;;;18.80;99.90;;;;;;5035124;28;20025;-45
2024/03/10 02:26:36;;;;;;;55.38;23.90;;;18.80;99.90;;;;;;5031815;28;20094;-44
2024/03/10 02:29:21;;;;;;;61.95;25.00;;;18.80;99.90;;;;;;5072791;28;20531;-44
2024/03/10 02:48:19;;;;;;;44.13;19.35;;;18.80;99.90;;;;;;5074862;28;20027;-43
2024/03/10 02:50:46;;;;;;;41.95;20.35;;;18.70;99.90;;;;;;5056848;28;20021;-44
2024/03/10 02:53:12;;;;;;;39.60;18.42;;;18.70;99.90;;;;;;5074392;28;20024;-44
2024/03/10 02:55:38;;;;;;;38.67;19.38;;;18.70;99.90;;;;;;5074413;28;20460;-43
2024/03/10 02:58:06;;;;;;;39.63;19.60;;;18.70;99.90;;;;;;5074277;28;20538;-44
2024/03/10 03:00:38;;;;;;;37.45;17.48;;;18.70;99.90;;;;;;5074766;28;20013;-43
2024/03/10 03:03:08;;;;;;;44.85;18.25;;;18.70;99.90;;;;;;5074263;28;20024;-44
2024/03/10 03:05:36;;;;;;;37.67;17.75;;;18.70;99.90;;;;;;5074199;28;20511;-44
2024/03/10 03:08:03;;;;;;;;;;;18.70;99.90;;;;;;5074871;28;20020;-44
2024/03/10 03:10:29;;;;;;;35.65;19.10;;;18.70;99.90;;;;;;5074377;28;20363;-44
2024/03/10 03:12:56;;;;;;;39.83;18.10;;;18.70;99.90;;;;;;5055806;28;20074;-44
2024/03/10 03:15:22;;;;;;;34.85;17.05;;;18.70;99.90;;;;;;5074057;28;20365;-44
2024/03/10 03:17:47;;;;;;;37.45;16.10;;;18.70;99.90;;;;;;5073969;28;20024;-44
2024/03/10 03:20:16;;;;;;;28.80;16.60;;;18.70;99.90;;;;;;5055964;28;20484;-44
2024/03/10 03:22:46;;;;;;;29.90;15.63;;;18.70;99.90;;;;;;5073923;28;20021;-44
2024/03/10 03:25:13;;;;;;;32.35;15.50;;;18.70;99.90;;;;;;5073872;28;20438;-44
2024/03/10 03:27:45;;;;;;;35.47;15.30;;;18.70;99.90;;;;;;5073865;28;20111;-44
2024/03/10 03:30:11;;;;;;;34.80;15.77;;;18.70;99.90;;;;;;5073783;28;20056;-44
2024/03/10 03:32:37;;;;;;;28.58;13.07;;;18.70;99.90;;;;;;5073859;28;20118;-44
2024/03/10 03:35:03;;;;;;;32.53;14.57;;;18.60;99.90;;;;;;5073864;28;20074;-44
2024/03/10 03:37:30;;;;;;;28.50;14.05;;;18.60;99.90;;;;;;5073909;28;20024;-45
2024/03/10 03:39:57;;;;;;;27.45;13.25;;;18.60;99.90;;;;;;5039358;28;20467;-43
2024/03/10 03:42:22;;;;;;;27.73;12.90;;;18.60;99.90;;;;;;5073398;28;20025;-43
2024/03/10 03:44:51;;;;;;;27.60;12.68;;;18.60;99.90;;;;;;5073320;28;20036;-45
2024/03/10 03:47:17;;;;;;;28.75;13.73;;;18.60;99.90;;;;;;5073489;28;20033;-44
2024/03/10 03:49:46;;;;;;;22.35;12.73;;;18.60;99.90;;;;;;5073355;28;20031;-45
2024/03/10 03:52:12;;;;;;;22.90;11.50;;;18.60;99.90;;;;;;5073448;28;20039;-44
2024/03/10 03:54:39;;;;;;;25.23;13.23;;;18.60;99.90;;;;;;5073451;28;20104;-44
2024/03/10 03:57:06;;;;;;;29.92;13.93;;;18.60;99.90;;;;;;5073359;28;20515;-44
2024/03/10 03:59:32;;;;;;;29.27;12.60;;;18.60;99.90;;;;;;5073423;28;20032;-45
2024/03/10 04:01:59;;;;;;;22.73;11.68;;;18.60;99.90;;;;;;5082714;23;20595;-56
2024/03/10 04:04:24;;;;;;;22.65;11.23;;;18.60;99.90;;;;;;5054838;28;20072;-55
2024/03/10 04:06:50;;;;;;;23.33;12.38;;;18.60;99.90;;;;;;5072887;28;20067;-54
2024/03/10 04:09:16;;;;;;;24.52;11.88;;;18.60;99.90;;;;;;5072786;28;20029;-53
2024/03/10 04:11:42;;;;;;;20.90;10.57;;;18.60;99.90;;;;;;5072773;28;20031;-54
2024/03/10 04:14:08;;;;;;;20.70;11.15;;;18.60;99.90;;;;;;5054684;28;20039;-53
2024/03/10 04:16:37;;;;;;;18.35;10.18;;;18.60;99.90;;;;;;5054750;28;20481;-55
2024/03/10 04:19:05;;;;;;;20.63;10.98;;;18.60;99.90;;;;;;5072821;28;20024;-54
2024/03/10 04:21:32;;;;;;;20.83;9.75;;;18.60;99.90;;;;;;5054737;28;20037;-55
2024/03/10 04:23:57;;;;;;;18.50;10.50;;;18.60;99.90;;;;;;5072313;28;20063;-56
2024/03/10 04:26:24;;;;;;;21.80;10.38;;;18.60;99.90;;;;;;5071894;28;20059;-54
2024/03/10 04:28:50;;;;;;;19.95;9.02;;;18.60;99.90;;;;;;5072459;28;20058;-54
2024/03/10 04:31:16;;;;;;;22.90;10.43;;;18.60;99.90;;;;;;5072416;28;20028;-54
2024/03/10 04:33:42;;;;;;;20.40;10.10;;;18.60;99.90;;;;;;5072261;28;20032;-54
2024/03/10 04:36:08;;;;;;;19.35;9.82;;;18.60;99.90;;;;;;5072392;28;20473;-55
2024/03/10 04:38:34;;;;;;;16.33;9.18;;;18.60;99.90;;;;;;5072343;28;20029;-55
2024/03/10 04:41:00;;;;;;;21.42;9.80;;;18.60;99.90;;;;;;5072430;28;20044;-55
2024/03/10 04:43:26;;;;;;;16.40;9.63;;;18.60;99.90;;;;;;5072296;28;20109;-55
2024/03/10 04:45:53;;;;;;;16.80;8.60;;;18.60;99.90;;;;;;5072290;28;20067;-55
2024/03/10 04:48:19;;;;;;;17.85;9.10;;;18.60;99.90;;;;;;5072360;28;20016;-55
2024/03/10 04:50:45;;;;;;;19.02;8.93;;;18.60;99.90;;;;;;5054218;28;20365;-55
2024/03/10 04:53:11;;;;;;;18.13;8.73;;;18.60;99.90;;;;;;5072142;28;20044;-55
2024/03/10 04:55:37;;;;;;;19.83;8.90;;;18.60;99.90;;;;;;5054314;28;20056;-54
2024/03/10 04:58:03;;;;;;;16.52;8.65;;;18.50;99.90;;;;;;5072362;28;20021;-54
2024/03/10 05:00:31;;;;;;;18.35;8.32;;;18.60;99.90;;;;;;5071966;28;20108;-55
2024/03/10 05:02:57;;;;;;;16.67;8.43;;;18.60;99.90;;;;;;5054530;28;20379;-55
2024/03/10 05:05:23;;;;;;;19.95;8.93;;;18.60;99.90;;;;;;5072053;28;20059;-54
2024/03/10 05:07:51;;;;;;;14.02;8.40;;;18.60;99.90;;;;;;5071944;28;20025;-55
2024/03/10 05:10:19;;;;;;;15.23;7.65;;;18.50;99.90;;;;;;5072107;28;20476;-55
2024/03/10 05:12:45;;;;;;;15.88;8.25;;;18.60;99.90;;;;;;5071963;28;20028;-55
2024/03/10 05:15:15;;;;;;;13.32;7.90;;;18.50;99.90;;;;;;5053964;28;20033;-55
2024/03/10 05:17:41;;;;;;;15.00;7.28;;;18.50;99.90;;;;;;5071850;28;20089;-55
2024/03/10 05:20:09;;;;;;;13.48;8.18;;;18.50;99.90;;;;;;5053933;28;20179;-55
2024/03/10 05:22:35;;;;;;;13.40;7.88;;;18.60;99.90;;;;;;5054062;28;20055;-55
2024/03/10 05:25:02;;;;;;;18.95;7.80;;;18.50;99.90;;;;;;5071779;28;20032;-54
2024/03/10 05:27:28;;;;;;;14.07;7.85;;;18.50;99.90;;;;;;5071758;28;20024;-54
2024/03/10 05:29:53;;;;;;;15.80;7.07;;;18.50;99.90;;;;;;5053840;28;20108;-54
2024/03/10 05:32:19;;;;;;;11.30;7.05;;;18.50;99.90;;;;;;5071553;28;20370;-54
2024/03/10 05:34:46;;;;;;;15.95;7.90;;;18.50;99.90;;;;;;5071786;28;20039;-55
2024/03/10 05:37:13;;;;;;;13.68;7.32;;;18.50;99.90;;;;;;5074505;28;20025;-54
2024/03/10 05:39:39;;;;;;;15.65;7.47;;;18.50;99.90;;;;;;5075712;28;20507;-54
2024/03/10 05:42:05;;;;;;;13.77;7.18;;;18.50;99.90;;;;;;5075908;28;20028;-54
2024/03/10 05:44:33;;;;;;;13.50;7.05;;;18.50;99.90;;;;;;5057618;28;20094;-55
2024/03/10 05:47:00;;;;;;;11.23;6.75;;;18.50;99.90;;;;;;5075558;28;20024;-55
2024/03/10 05:49:26;;;;;;;11.38;6.72;;;18.50;99.90;;;;;;5075601;28;20028;-55
2024/03/10 05:51:53;;;;;;;15.17;7.20;;;18.50;99.90;;;;;;5075457;28;20025;-54
2024/03/10 05:54:21;;;;;;;11.67;6.30;;;18.50;99.90;;;;;;5057857;28;20319;-54
2024/03/10 05:56:47;;;;;;;11.25;6.78;;;18.50;99.90;;;;;;5075506;28;20050;-54
2024/03/10 05:59:13;;;;;;;11.95;6.75;;;18.50;99.90;;;;;;5057450;28;20111;-55
2024/03/10 06:01:40;;;;;;;12.00;7.95;;;18.50;99.90;;;;;;5052056;28;20041;-54
2024/03/10 06:04:06;;;;;;;11.38;6.28;;;18.50;99.90;;;;;;5054328;28;20091;-54
2024/03/10 06:06:33;;;;;;;11.90;6.53;;;18.50;99.90;;;;;;5054092;28;20021;-54
2024/03/10 06:09:00;;;;;;;13.98;6.38;;;18.50;99.90;;;;;;5054302;28;20017;-55
2024/03/10 06:11:26;;;;;;;12.68;7.20;;;18.50;99.90;;;;;;5054443;28;20033;-54
2024/03/10 06:13:52;;;;;;;12.32;6.57;;;18.50;99.90;;;;;;5037396;28;20377;-54
2024/03/10 06:16:19;;;;;;;11.65;6.78;;;18.50;99.90;;;;;;5037151;28;20021;-54
2024/03/10 06:26:53;;;;;;;11.93;6.43;;;18.50;99.90;;;;;;5055260;28;20393;-55
2024/03/10 06:29:19;;;;;;;9.52;6.05;;;18.50;99.90;;;;;;5054762;28;20052;-55
2024/03/10 06:31:45;;;;;;;11.48;6.45;;;18.40;99.90;;;;;;5036732;28;20025;-55
2024/03/10 06:34:11;;;;;;;11.75;6.20;;;18.40;99.90;;;;;;5054924;28;20048;-55
2024/03/10 06:36:37;;;;;;;10.20;5.82;;;18.40;99.90;;;;;;5054813;28;20027;-54
2024/03/10 06:39:06;;;;;;;10.02;5.60;;;18.40;99.90;;;;;;5054596;28;20049;-54
2024/03/10 06:41:33;;;;;;;11.65;6.20;;;18.40;99.90;;;;;;5054537;28;20053;-53
2024/03/10 06:44:00;;;;;;;10.15;5.35;;;18.40;99.90;;;;;;5054318;28;20401;-54
2024/03/10 06:46:26;;;;;;;9.27;5.20;;;18.40;99.90;;;;;;5054639;28;20021;-54
2024/03/10 06:48:52;;;;;;;9.23;5.30;;;18.40;99.90;;;;;;5053641;28;20100;-54
2024/03/10 06:51:21;;;;;;;9.82;5.15;;;18.40;99.90;;;;;;5054388;28;20108;-54
2024/03/10 06:53:47;;;;;;;10.40;5.70;;;18.40;99.90;;;;;;5054339;28;20435;-54
2024/03/10 06:56:14;;;;;;;11.70;5.70;;;18.40;99.90;;;;;;5054258;28;20048;-54
2024/03/10 06:58:46;;;;;;;8.48;5.07;;;18.40;99.90;;;;;;5036611;28;20039;-54
2024/03/10 07:01:12;;;;;;;9.23;5.38;;;18.40;99.90;;;;;;5054329;28;20043;-54
2024/03/10 07:03:39;;;;;;;8.82;5.30;;;18.40;99.90;;;;;;5054146;28;20536;-54
2024/03/10 07:06:06;;;;;;;8.43;5.38;;;18.40;99.90;;;;;;5054144;28;20027;-54
2024/03/10 07:08:33;;;;;;;8.55;5.20;;;18.40;99.90;;;;;;5054206;28;20021;-55
2024/03/10 07:10:59;;;;;;;7.47;4.68;;;18.40;99.90;;;;;;5054005;28;20489;-54
2024/03/10 07:13:25;;;;;;;10.07;5.10;;;18.40;99.90;;;;;;5054025;28;20017;-54
2024/03/10 07:15:53;;;;;;;8.73;5.30;;;18.40;99.90;;;;;;5053871;28;20025;-55
2024/03/10 07:18:18;;;;;;;;;;;18.40;99.90;;;;;;5054379;28;20017;-54
2024/03/10 07:20:44;;;;;;;9.27;4.93;;;18.40;99.90;;;;;;5053769;28;19905;-54
2024/03/10 07:23:10;;;;;;;9.05;4.68;;;18.40;99.90;;;;;;5054032;28;20100;-55
2024/03/10 07:25:36;;;;;;;7.35;4.68;;;18.40;99.90;;;;;;5053507;28;20055;-54
2024/03/10 07:28:02;;;;;;;7.30;4.25;;;18.40;99.90;;;;;;5053620;28;20060;-54
2024/03/10 07:30:28;;;;;;;7.75;4.50;;;18.40;99.90;;;;;;5053463;28;20465;-54
2024/03/10 07:32:53;;;;;;;9.80;5.05;;;18.40;99.90;;;;;;5035566;28;20040;-55
2024/03/10 07:35:21;;;;;;;8.20;5.10;;;18.40;99.90;;;;;;5035635;28;20071;-54
2024/03/10 07:37:47;;;;;;;7.18;4.40;;;18.40;99.90;;;;;;5053461;28;20021;-54
2024/03/10 07:40:19;;;;;;;6.93;4.20;;;18.40;99.90;;;;;;5035656;28;20585;-54
2024/03/10 07:42:46;;;;;;;7.60;4.80;;;18.40;99.90;;;;;;5035812;28;20021;-54
2024/03/10 07:45:12;;;;;;;6.30;4.30;;;18.40;99.90;;;;;;5019361;28;20397;-55
2024/03/10 07:47:42;;;;;;;7.18;4.32;;;18.40;99.90;;;;;;5053382;28;20053;-54
2024/03/10 07:50:12;;;;;;;6.90;4.28;;;18.40;99.90;;;;;;5053424;28;20440;-54
2024/03/10 07:52:42;;;;;;;6.30;3.95;;;18.40;99.90;;;;;;5053266;28;20031;-55
2024/03/10 07:55:11;;;;;;;6.78;3.90;;;18.40;99.90;;;;;;5035626;28;20025;-54
2024/03/10 07:57:40;;;;;;;7.55;4.78;;;18.40;99.90;;;;;;5053102;28;20113;-54
2024/03/10 08:00:11;;;;;;;6.53;4.30;;;18.40;99.90;;;;;;5053203;28;20025;-53
2024/03/10 08:02:41;;;;;;;9.90;4.28;;;18.40;99.90;;;;;;5052892;28;20390;-54
2024/03/10 08:05:13;;;;;;;6.85;3.83;;;18.40;99.90;;;;;;5052840;28;20121;-55
2024/03/10 08:07:43;;;;;;;7.97;4.22;;;18.50;99.90;;;;;;5052963;28;20079;-54
2024/03/10 08:10:12;;;;;;;7.85;4.13;;;18.50;99.90;;;;;;5053004;28;20444;-54
2024/03/10 08:12:38;;;;;;;11.02;4.07;;;18.50;99.90;;;;;;5052824;28;20083;-55
2024/03/10 08:15:09;;;;;;;6.05;4.00;;;18.50;99.90;;;;;;5052883;28;20017;-54
2024/03/10 08:17:35;;;;;;;6.28;3.80;;;18.50;99.90;;;;;;5052628;28;20040;-54
2024/03/10 08:20:06;;;;;;;6.82;4.18;;;18.50;99.90;;;;;;5052827;28;20071;-54
2024/03/10 08:22:33;;;;;;;7.10;3.80;;;18.50;99.90;;;;;;5052595;28;20021;-54
2024/03/10 08:24:59;;;;;;;6.10;3.70;;;18.50;99.90;;;;;;5052551;28;20032;-54
2024/03/10 08:27:24;;;;;;;5.70;3.67;;;18.50;99.90;;;;;;5034788;28;20385;-54
2024/03/10 08:29:50;;;;;;;6.93;3.53;;;18.50;99.90;;;;;;5034609;28;20025;-53
2024/03/10 08:32:16;;;;;;;8.82;3.85;;;18.50;99.90;;;;;;5034738;28;20028;-53
2024/03/10 08:34:42;;;;;;;6.47;4.18;;;18.50;99.90;;;;;;5034521;28;20031;-55
2024/03/10 08:37:08;;;;;;;6.10;3.80;;;18.50;99.90;;;;;;5034803;28;20017;-55
2024/03/10 08:39:34;;;;;;;6.78;3.38;;;18.60;99.90;;;;;;5034539;28;20113;-55
2024/03/10 08:42:00;;;;;;;5.82;3.53;;;18.60;99.90;;;;;;5052541;28;20554;-55
2024/03/10 08:44:26;;;;;;;6.78;3.13;;;18.50;99.90;;;;;;5052441;28;20392;-53
2024/03/10 08:46:52;;;;;;;9.90;3.88;;;18.60;99.90;;;;;;5052314;28;20074;-53
2024/03/10 08:49:18;;;;;;;5.25;3.35;;;18.60;99.90;;;;;;5052547;28;20017;-54
2024/03/10 08:51:43;;;;;;;5.78;3.45;;;18.60;99.90;;;;;;5017996;28;20036;-54
2024/03/10 08:54:09;;;;;;;6.43;3.83;;;18.60;99.90;;;;;;5052292;28;20109;-54
2024/03/10 08:56:40;;;;;;;7.25;3.40;;;18.60;99.90;;;;;;5052412;28;20024;-54
2024/03/10 08:59:11;;;;;;;6.20;3.25;;;18.60;99.90;;;;;;5052085;28;20036;-54
2024/03/10 09:01:44;;;;;;;7.88;4.38;;;18.60;99.90;;;;;;5051921;28;20123;-54
2024/03/10 09:04:10;;;;;;;6.15;3.58;;;18.60;99.90;;;;;;5052106;28;20094;-54
2024/03/10 09:06:36;;;;;;;6.30;3.45;;;18.60;99.90;;;;;;5052179;28;20053;-54
2024/03/10 09:09:05;;;;;;;6.60;3.03;;;18.70;99.90;;;;;;5051962;28;20021;-54
2024/03/10 09:11:31;;;;;;;6.60;3.35;;;18.60;99.90;;;;;;5051710;28;20021;-54
2024/03/10 09:14:00;;;;;;;5.90;3.63;;;18.60;99.90;;;;;;5051969;28;20039;-54
2024/03/10 09:16:27;;;;;;;5.25;3.45;;;18.70;99.90;;;;;;5052077;28;20033;-55
2024/03/10 09:18:53;;;;;;;4.85;2.97;;;18.70;99.90;;;;;;5052212;28;20021;-55
2024/03/10 09:21:19;;;;;;;5.60;3.75;;;18.70;99.90;;;;;;5052205;28;20091;-55
2024/03/10 09:23:45;;;;;;;5.75;3.13;;;18.70;99.90;;;;;;5051910;28;20030;-55
2024/03/10 09:26:14;;;;;;;4.50;2.83;;;18.70;99.90;;;;;;5051840;28;20358;-54
2024/03/10 09:28:44;;;;;;;8.18;3.38;;;18.70;99.90;;;;;;5034002;28;20538;-55
2024/03/10 09:31:11;;;;;;;5.03;3.00;;;18.70;99.90;;;;;;5033866;28;20025;-54
2024/03/10 09:33:37;;;;;;;6.20;3.35;;;18.70;99.90;;;;;;5034062;28;20032;-54
2024/03/10 09:36:05;;;;;;;9.88;3.53;;;18.70;99.90;;;;;;5034041;28;20083;-54
2024/03/10 09:38:32;;;;;;;5.70;3.22;;;18.70;99.90;;;;;;5033966;28;20093;-54
2024/03/10 09:40:59;;;;;;;4.93;3.08;;;18.70;99.90;;;;;;5051743;28;20580;-53
2024/03/10 09:43:25;;;;;;;6.50;2.92;;;18.80;99.90;;;;;;5051438;28;20026;-53
2024/03/10 09:45:53;;;;;;;5.45;2.75;;;18.80;99.90;;;;;;5051911;28;20037;-53
2024/03/10 09:48:22;;;;;;;4.80;3.13;;;18.80;99.90;;;;;;5051925;28;20021;-54
2024/03/10 09:50:50;;;;;;;6.50;3.83;;;18.80;99.90;;;;;;5051705;28;20031;-54
2024/03/10 09:53:19;;;;;;;8.05;3.40;;;18.80;99.90;;;;;;5051549;28;20028;-54
2024/03/10 09:55:52;;;;;;;5.47;3.17;;;18.80;99.90;;;;;;5051435;28;20082;-54
2024/03/10 09:58:33;;;;;;;6.38;3.50;;;18.90;99.90;;;;;;5051707;28;20021;-54
2024/03/10 10:01:03;;;;;;;5.57;2.78;;;18.90;99.90;;;;;;5033650;28;20049;-53
2024/03/10 10:03:29;;;;;;;4.43;2.85;;;18.90;99.90;;;;;;5051505;28;20025;-54
2024/03/10 10:06:00;;;;;;;8.48;3.67;;;18.90;99.90;;;;;;5051410;28;20116;-54
2024/03/10 10:08:29;;;;;;;8.23;2.92;;;18.90;99.90;;;;;;5051593;28;20504;-53
2024/03/10 10:10:58;;;;;;;8.20;3.00;;;19.00;99.90;;;;;;5033714;28;20060;-53
2024/03/10 10:13:28;;;;;;;5.82;3.15;;;19.00;99.90;;;;;;5051483;28;20100;-54
2024/03/10 10:15:57;;;;;;;7.45;3.28;;;19.00;99.90;;;;;;5033786;28;20025;-53
2024/03/10 10:18:23;;;;;;;6.25;3.45;;;19.00;99.90;;;;;;5051533;28;20427;-54
2024/03/10 10:20:51;;;;;;;5.22;3.28;;;19.10;99.90;;;;;;5051361;28;20550;-54
2024/03/10 10:23:23;;;;;;;4.47;2.83;;;19.10;99.90;;;;;;5034579;28;20544;-54
2024/03/10 10:26:05;;;;;;;5.60;2.75;;;19.10;99.90;;;;;;5037059;28;20497;-54
2024/03/10 10:28:33;;;;;;;5.47;2.97;;;19.10;99.90;;;;;;5037056;28;20036;-54
2024/03/10 10:31:10;;;;;;;5.85;2.95;;;19.20;99.90;;;;;;5054852;28;20108;-54
2024/03/10 10:33:38;;;;;;;6.93;3.30;;;19.20;99.90;;;;;;5054923;28;20101;-54
2024/03/10 10:36:08;;;;;;;7.88;2.70;;;19.30;99.90;;;;;;5054854;28;20029;-55
2024/03/10 10:38:40;;;;;;;6.72;2.63;;;19.30;99.90;;;;;;5054941;28;20468;-54
2024/03/10 10:41:08;;;;;;;6.13;2.90;;;19.30;99.90;;;;;;5054751;28;20029;-55
2024/03/10 10:43:38;;;;;;;7.63;2.83;;;19.30;99.90;;;;;;5054704;28;20017;-54
2024/03/10 10:46:12;;;;;;;5.43;3.05;;;19.30;99.90;;;;;;5054746;28;20029;-54
2024/03/10 10:48:41;;;;;;;7.35;2.60;;;19.30;99.90;;;;;;5054785;28;20115;-55
2024/03/10 10:51:08;;;;;;;6.80;3.15;;;19.30;99.90;;;;;;5054565;28;20491;-55
2024/03/10 10:53:35;;;;;;;5.03;2.53;;;19.40;99.90;;;;;;5036701;28;20381;-55
2024/03/10 10:56:02;;;;;;;5.40;2.55;;;19.40;99.90;;;;;;5054540;28;20262;-54
2024/03/10 10:58:31;;;;;;;5.63;2.85;;;19.40;99.90;;;;;;5054506;28;20076;-55
2024/03/10 11:01:04;;;;;;;7.68;2.97;;;19.40;99.90;;;;;;5054468;28;20044;-54
2024/03/10 11:03:41;;;;;;;5.85;3.33;;;19.50;99.90;;;;;;5036284;28;20037;-54
2024/03/10 11:06:15;;;;;;;3.85;2.60;;;19.50;99.90;;;;;;5054182;28;20036;-54
2024/03/10 11:08:43;;;;;;;5.72;2.35;;;19.50;99.90;;;;;;5036483;28;20021;-54
2024/03/10 11:11:14;;;;;;;6.72;3.15;;;19.60;99.90;;;;;;5054156;28;20024;-54
2024/03/10 11:13:43;;;;;;;8.80;3.00;;;19.60;99.90;;;;;;5054198;28;20469;-54
2024/03/10 11:16:11;;;;;;;8.82;2.95;;;19.70;99.90;;;;;;5036423;28;20017;-54
2024/03/10 11:18:38;;;;;;;5.65;2.95;;;19.70;99.90;;;;;;5054088;28;20025;-54
2024/03/10 11:21:24;;;;;;;8.93;3.38;;;19.70;99.90;;;;;;5054052;28;20381;-54
2024/03/10 11:23:51;;;;;;;6.45;3.08;;;19.70;99.90;;;;;;5053577;28;20079;-54
2024/03/10 11:26:21;;;;;;;8.07;3.33;;;19.70;99.90;;;;;;5053844;28;20370;-54
2024/03/10 11:28:54;;;;;;;5.50;3.17;;;19.80;99.90;;;;;;5035970;28;20036;-54
2024/03/10 11:31:23;;;;;;;6.68;3.60;;;19.80;99.90;;;;;;5053829;28;20022;-54
2024/03/10 11:33:58;;;;;;;9.38;3.20;;;19.80;99.90;;;;;;5053542;28;20092;-54
2024/03/10 11:36:25;;;;;;;7.75;3.75;;;19.90;99.90;;;;;;5053785;28;20036;-55
2024/03/10 11:38:52;;;;;;;5.70;3.10;;;19.90;99.90;;;;;;5035786;28;20049;-55
2024/03/10 11:41:20;;;;;;;6.90;3.65;;;19.90;99.90;;;;;;5053442;28;20108;-54
2024/03/10 11:43:48;;;;;;;7.80;3.30;;;19.90;99.90;;;;;;5035489;28;20025;-55
2024/03/10 11:46:19;;;;;;;6.93;3.10;;;19.90;99.90;;;;;;5053538;28;20033;-55
2024/03/10 11:48:52;;;;;;;8.05;3.20;;;19.90;99.90;;;;;;5035503;28;20021;-55
2024/03/10 11:51:19;;;;;;;7.93;3.75;;;19.90;99.90;;;;;;5053516;28;20035;-56
2024/03/10 11:53:45;;;;;;;7.03;3.65;;;20.00;99.90;;;;;;5053446;28;20029;-54
2024/03/10 11:56:14;;;;;;;7.82;3.80;;;20.00;99.90;;;;;;5053328;28;20039;-54
2024/03/10 11:59:00;;;;;;;6.53;3.15;;;20.00;99.90;;;;;;5035444;28;20021;-55
2024/03/10 12:01:27;;;;;;;9.48;3.92;;;20.00;99.90;;;;;;5034788;28;20520;-55
2024/03/10 12:03:59;;;;;;;8.00;3.28;;;20.00;99.90;;;;;;5053241;28;20449;-54
2024/03/10 12:06:25;;;;;;;4.88;3.20;;;20.00;99.90;;;;;;5035217;28;20029;-54
2024/03/10 12:08:51;;;;;;;12.05;4.15;;;20.10;99.90;;;;;;5054892;28;20076;-55
2024/03/10 12:11:17;;;;;;;10.10;4.45;;;20.00;99.90;;;;;;5063401;28;20372;-55
2024/03/10 12:13:44;;;;;;;8.45;3.67;;;20.10;99.90;;;;;;5045098;28;20029;-54
2024/03/10 12:16:11;;;;;;;12.13;4.00;;;20.10;99.90;;;;;;5061394;28;20500;-54
2024/03/10 12:18:40;;;;;;;9.98;3.95;;;20.10;99.90;;;;;;5063821;28;20040;-54
2024/03/10 12:21:15;;;;;;;5.47;3.47;;;20.10;99.90;;;;;;5056241;28;20032;-54
2024/03/10 12:23:45;;;;;;;6.57;3.58;;;20.10;99.90;;;;;;5041696;28;20112;-54
2024/03/10 12:26:13;;;;;;;11.25;4.05;;;20.10;99.90;;;;;;5071579;28;20032;-54
2024/03/10 12:28:46;;;;;;;6.97;4.00;;;20.10;99.90;;;;;;5071776;28;20472;-55
2024/03/10 12:31:14;;;;;;;9.27;3.40;;;20.20;99.90;;;;;;5038448;28;20376;-55
2024/03/10 12:33:41;;;;;;;7.10;3.83;;;20.20;99.90;;;;;;5071889;28;20491;-55
2024/03/10 12:36:12;;;;;;;8.60;4.03;;;20.20;99.90;;;;;;5069617;28;20025;-55
2024/03/10 12:38:40;;;;;;;9.93;3.70;;;20.20;99.90;;;;;;5072357;28;20024;-60
2024/03/10 12:41:07;;;;;;;8.02;4.03;;;20.20;99.90;;;;;;5037839;28;20025;-58
2024/03/10 12:43:33;;;;;;;11.95;4.75;;;20.20;99.90;;;;;;5071946;28;20060;-57
2024/03/10 12:46:15;;;;;;;9.82;3.90;;;20.20;99.90;;;;;;5071228;28;20090;-57
2024/03/10 12:48:41;;;;;;;11.20;4.55;;;20.30;99.90;;;;;;5052416;28;20074;-56
2024/03/10 12:51:09;;;;;;;9.45;3.75;;;20.30;99.90;;;;;;5071662;28;20039;-55
2024/03/10 12:53:37;;;;;;;6.75;3.72;;;20.30;99.90;;;;;;5069347;28;20028;-55
2024/03/10 12:56:03;;;;;;;9.00;3.13;;;20.30;99.90;;;;;;5071644;28;20023;-55
2024/03/10 12:58:29;;;;;;;16.42;4.00;;;20.30;99.90;;;;;;5071804;28;20035;-55
2024/03/10 13:00:55;;;;;;;9.38;2.80;;;20.20;99.90;;;;;;5071858;28;20052;-55
2024/03/10 13:03:21;;;;;;;11.55;3.72;;;20.30;99.90;;;;;;5072017;28;20031;-55
2024/03/10 13:05:48;;;;;;;10.33;3.73;;;20.30;99.90;;;;;;5054043;28;20048;-55